sensor_id;sensor_type;location;lat;lon;timestamp;P1;durP1;ratioP1;P2;durP2;ratioP2
82900;SDS011;72673;50.822;3.280;2024-03-02T00:00:10;1.92;;;0.60;;
82900;SDS011;72673;50.822;3.280;2024-03-02T00:02:44;0.55;;;0.50;;
82900;SDS011;72673;50.822;3.280;2024-03-02T00:05:11;1.60;;;0.73;;
82900;SDS011;72673;50.822;3.280;2024-03-02T00:07:41;0.95;;;0.63;;
82900;SDS011;72673;50.822;3.280;2024-03-02T00:12:35;3.67;;;0.60;;
82900;SDS011;72673;50.822;3.280;2024-03-02T00:15:03;3.78;;;0.65;;
82900;SDS011;72673;50.822;3.280;2024-03-02T00:17:53;0.82;;;0.50;;
82900;SDS011;72673;50.822;3.280;2024-03-02T00:20:21;1.73;;;0.50;;
82900;SDS011;72673;50.822;3.280;2024-03-02T00:22:48;2.15;;;0.65;;
82900;SDS011;72673;50.822;3.280;2024-03-02T00:25:16;0.87;;;0.37;;
82900;SDS011;72673;50.822;3.280;2024-03-02T00:27:42;1.42;;;0.57;;
82900;SDS011;72673;50.822;3.280;2024-03-02T00:33:12;1.10;;;0.60;;
82900;SDS011;72673;50.822;3.280;2024-03-02T00:35:37;0.85;;;0.40;;
82900;SDS011;72673;50.822;3.280;2024-03-02T00:38:04;0.57;;;0.52;;
82900;SDS011;72673;50.822;3.280;2024-03-02T00:40:31;0.85;;;0.70;;
82900;SDS011;72673;50.822;3.280;2024-03-02T00:42:57;2.38;;;0.90;;
82900;SDS011;72673;50.822;3.280;2024-03-02T00:45:23;1.25;;;0.60;;
82900;SDS011;72673;50.822;3.280;2024-03-02T00:47:50;1.70;;;0.63;;
82900;SDS011;72673;50.822;3.280;2024-03-02T00:50:16;1.35;;;0.70;;
82900;SDS011;72673;50.822;3.280;2024-03-02T00:52:42;3.88;;;0.90;;
82900;SDS011;72673;50.822;3.280;2024-03-02T00:55:08;3.53;;;0.80;;
82900;SDS011;72673;50.822;3.280;2024-03-02T00:57:34;0.98;;;0.60;;
82900;SDS011;72673;50.822;3.280;2024-03-02T01:00:00;1.52;;;0.50;;
82900;SDS011;72673;50.822;3.280;2024-03-02T01:02:26;1.05;;;0.50;;
82900;SDS011;72673;50.822;3.280;2024-03-02T01:04:54;2.33;;;0.73;;
82900;SDS011;72673;50.822;3.280;2024-03-02T01:07:20;1.67;;;0.70;;
82900;SDS011;72673;50.822;3.280;2024-03-02T01:09:45;2.08;;;0.82;;
82900;SDS011;72673;50.822;3.280;2024-03-02T01:12:11;1.90;;;0.93;;
82900;SDS011;72673;50.822;3.280;2024-03-02T01:14:36;5.07;;;0.90;;
82900;SDS011;72673;50.822;3.280;2024-03-02T01:17:02;4.78;;;0.88;;
82900;SDS011;72673;50.822;3.280;2024-03-02T01:19:29;5.07;;;0.98;;
82900;SDS011;72673;50.822;3.280;2024-03-02T01:21:55;4.07;;;1.10;;
82900;SDS011;72673;50.822;3.280;2024-03-02T01:24:21;4.28;;;0.70;;
82900;SDS011;72673;50.822;3.280;2024-03-02T01:26:47;2.47;;;0.80;;
82900;SDS011;72673;50.822;3.280;2024-03-02T01:29:13;1.92;;;0.88;;
82900;SDS011;72673;50.822;3.280;2024-03-02T01:31:38;1.92;;;0.95;;
82900;SDS011;72673;50.822;3.280;2024-03-02T01:34:07;4.65;;;1.45;;
82900;SDS011;72673;50.822;3.280;2024-03-02T01:36:32;3.15;;;1.00;;
82900;SDS011;72673;50.822;3.280;2024-03-02T01:38:58;2.95;;;0.88;;
82900;SDS011;72673;50.822;3.280;2024-03-02T01:41:24;8.43;;;1.50;;
82900;SDS011;72673;50.822;3.280;2024-03-02T01:43:49;3.17;;;0.95;;
82900;SDS011;72673;50.822;3.280;2024-03-02T01:46:15;5.10;;;1.40;;
82900;SDS011;72673;50.822;3.280;2024-03-02T01:48:41;2.75;;;1.40;;
82900;SDS011;72673;50.822;3.280;2024-03-02T01:51:06;6.15;;;1.38;;
82900;SDS011;72673;50.822;3.280;2024-03-02T01:53:33;3.67;;;1.58;;
82900;SDS011;72673;50.822;3.280;2024-03-02T01:55:59;5.70;;;1.70;;
82900;SDS011;72673;50.822;3.280;2024-03-02T01:58:26;3.03;;;1.30;;
82900;SDS011;72673;50.822;3.280;2024-03-02T02:00:52;5.82;;;1.80;;
82900;SDS011;72673;50.822;3.280;2024-03-02T02:03:18;4.72;;;1.60;;
82900;SDS011;72673;50.822;3.280;2024-03-02T02:05:43;3.88;;;1.70;;
82900;SDS011;72673;50.822;3.280;2024-03-02T02:08:09;4.57;;;2.30;;
82900;SDS011;72673;50.822;3.280;2024-03-02T02:10:35;9.77;;;2.45;;
82900;SDS011;72673;50.822;3.280;2024-03-02T02:13:01;5.65;;;2.38;;
82900;SDS011;72673;50.822;3.280;2024-03-02T02:15:30;4.07;;;2.10;;
82900;SDS011;72673;50.822;3.280;2024-03-02T02:17:57;6.53;;;2.83;;
82900;SDS011;72673;50.822;3.280;2024-03-02T02:20:23;8.30;;;2.92;;
82900;SDS011;72673;50.822;3.280;2024-03-02T02:23:05;10.02;;;2.95;;
82900;SDS011;72673;50.822;3.280;2024-03-02T02:25:32;5.38;;;2.47;;
82900;SDS011;72673;50.822;3.280;2024-03-02T02:27:59;9.93;;;3.53;;
82900;SDS011;72673;50.822;3.280;2024-03-02T02:30:28;8.00;;;2.90;;
82900;SDS011;72673;50.822;3.280;2024-03-02T02:32:55;7.40;;;3.15;;
82900;SDS011;72673;50.822;3.280;2024-03-02T02:35:21;5.40;;;2.40;;
82900;SDS011;72673;50.822;3.280;2024-03-02T02:37:47;5.20;;;2.55;;
82900;SDS011;72673;50.822;3.280;2024-03-02T02:40:14;9.35;;;2.90;;
82900;SDS011;72673;50.822;3.280;2024-03-02T02:42:40;6.03;;;2.38;;
82900;SDS011;72673;50.822;3.280;2024-03-02T02:45:06;8.20;;;2.80;;
82900;SDS011;72673;50.822;3.280;2024-03-02T02:47:32;5.25;;;2.55;;
82900;SDS011;72673;50.822;3.280;2024-03-02T02:50:02;5.60;;;2.45;;
82900;SDS011;72673;50.822;3.280;2024-03-02T02:52:31;7.35;;;2.47;;
82900;SDS011;72673;50.822;3.280;2024-03-02T02:54:58;6.15;;;2.47;;
82900;SDS011;72673;50.822;3.280;2024-03-02T02:57:24;4.55;;;2.03;;
82900;SDS011;72673;50.822;3.280;2024-03-02T02:59:50;5.60;;;2.20;;
82900;SDS011;72673;50.822;3.280;2024-03-02T03:02:16;7.45;;;1.88;;
82900;SDS011;72673;50.822;3.280;2024-03-02T03:04:41;5.68;;;1.92;;
82900;SDS011;72673;50.822;3.280;2024-03-02T03:07:07;6.88;;;1.88;;
82900;SDS011;72673;50.822;3.280;2024-03-02T03:09:32;5.97;;;2.10;;
82900;SDS011;72673;50.822;3.280;2024-03-02T03:11:58;5.78;;;2.20;;
82900;SDS011;72673;50.822;3.280;2024-03-02T03:14:24;3.88;;;2.00;;
82900;SDS011;72673;50.822;3.280;2024-03-02T03:16:49;6.78;;;2.15;;
82900;SDS011;72673;50.822;3.280;2024-03-02T03:19:15;6.00;;;2.03;;
82900;SDS011;72673;50.822;3.280;2024-03-02T03:21:43;5.68;;;2.00;;
82900;SDS011;72673;50.822;3.280;2024-03-02T03:24:08;5.85;;;2.10;;
82900;SDS011;72673;50.822;3.280;2024-03-02T03:26:35;6.13;;;2.13;;
82900;SDS011;72673;50.822;3.280;2024-03-02T03:29:02;8.07;;;1.90;;
82900;SDS011;72673;50.822;3.280;2024-03-02T03:31:28;6.47;;;1.73;;
82900;SDS011;72673;50.822;3.280;2024-03-02T03:33:54;6.32;;;1.90;;
82900;SDS011;72673;50.822;3.280;2024-03-02T03:36:20;3.75;;;1.70;;
82900;SDS011;72673;50.822;3.280;2024-03-02T03:38:45;6.68;;;1.98;;
82900;SDS011;72673;50.822;3.280;2024-03-02T03:41:11;2.65;;;1.25;;
82900;SDS011;72673;50.822;3.280;2024-03-02T03:43:36;7.18;;;1.80;;
82900;SDS011;72673;50.822;3.280;2024-03-02T03:46:02;4.78;;;1.88;;
82900;SDS011;72673;50.822;3.280;2024-03-02T03:48:28;5.40;;;1.65;;
82900;SDS011;72673;50.822;3.280;2024-03-02T03:50:55;6.05;;;1.55;;
82900;SDS011;72673;50.822;3.280;2024-03-02T03:53:21;5.53;;;1.60;;
82900;SDS011;72673;50.822;3.280;2024-03-02T03:55:47;7.80;;;1.77;;
82900;SDS011;72673;50.822;3.280;2024-03-02T03:58:14;5.07;;;1.55;;
82900;SDS011;72673;50.822;3.280;2024-03-02T04:00:41;6.65;;;1.40;;
82900;SDS011;72673;50.822;3.280;2024-03-02T04:03:07;8.68;;;1.80;;
82900;SDS011;72673;50.822;3.280;2024-03-02T04:05:33;5.32;;;1.60;;
82900;SDS011;72673;50.822;3.280;2024-03-02T04:07:58;12.23;;;2.13;;
82900;SDS011;72673;50.822;3.280;2024-03-02T04:10:25;7.60;;;1.35;;
82900;SDS011;72673;50.822;3.280;2024-03-02T04:12:50;8.85;;;1.42;;
82900;SDS011;72673;50.822;3.280;2024-03-02T04:15:16;4.20;;;1.30;;
82900;SDS011;72673;50.822;3.280;2024-03-02T04:17:43;11.48;;;1.65;;
82900;SDS011;72673;50.822;3.280;2024-03-02T04:20:09;8.00;;;2.28;;
82900;SDS011;72673;50.822;3.280;2024-03-02T04:22:37;4.90;;;1.60;;
82900;SDS011;72673;50.822;3.280;2024-03-02T04:25:03;4.43;;;1.30;;
82900;SDS011;72673;50.822;3.280;2024-03-02T04:27:32;4.13;;;1.17;;
82900;SDS011;72673;50.822;3.280;2024-03-02T04:29:58;4.82;;;1.25;;
82900;SDS011;72673;50.822;3.280;2024-03-02T04:32:26;3.80;;;1.38;;
82900;SDS011;72673;50.822;3.280;2024-03-02T04:34:52;8.82;;;1.38;;
82900;SDS011;72673;50.822;3.280;2024-03-02T04:37:17;5.53;;;1.40;;
82900;SDS011;72673;50.822;3.280;2024-03-02T04:39:43;5.28;;;1.50;;
82900;SDS011;72673;50.822;3.280;2024-03-02T04:42:09;4.40;;;1.00;;
82900;SDS011;72673;50.822;3.280;2024-03-02T04:44:34;5.80;;;1.60;;
82900;SDS011;72673;50.822;3.280;2024-03-02T04:47:00;7.72;;;1.60;;
82900;SDS011;72673;50.822;3.280;2024-03-02T04:49:26;4.40;;;1.45;;
82900;SDS011;72673;50.822;3.280;2024-03-02T04:51:51;14.35;;;2.00;;
82900;SDS011;72673;50.822;3.280;2024-03-02T04:54:17;8.93;;;1.80;;
82900;SDS011;72673;50.822;3.280;2024-03-02T04:56:43;7.20;;;1.92;;
82900;SDS011;72673;50.822;3.280;2024-03-02T04:59:09;4.10;;;1.63;;
82900;SDS011;72673;50.822;3.280;2024-03-02T05:01:35;4.43;;;1.45;;
82900;SDS011;72673;50.822;3.280;2024-03-02T05:04:01;6.72;;;1.50;;
82900;SDS011;72673;50.822;3.280;2024-03-02T05:06:27;6.65;;;1.50;;
82900;SDS011;72673;50.822;3.280;2024-03-02T05:08:52;7.82;;;2.17;;
82900;SDS011;72673;50.822;3.280;2024-03-02T05:11:18;2.78;;;1.30;;
82900;SDS011;72673;50.822;3.280;2024-03-02T05:14:02;4.30;;;1.65;;
82900;SDS011;72673;50.822;3.280;2024-03-02T05:16:28;5.25;;;1.25;;
82900;SDS011;72673;50.822;3.280;2024-03-02T05:18:54;6.22;;;1.65;;
82900;SDS011;72673;50.822;3.280;2024-03-02T05:21:19;5.28;;;1.33;;
82900;SDS011;72673;50.822;3.280;2024-03-02T05:23:45;5.00;;;1.75;;
82900;SDS011;72673;50.822;3.280;2024-03-02T05:26:11;7.15;;;1.42;;
82900;SDS011;72673;50.822;3.280;2024-03-02T05:28:39;4.60;;;1.10;;
82900;SDS011;72673;50.822;3.280;2024-03-02T05:31:05;7.32;;;1.35;;
82900;SDS011;72673;50.822;3.280;2024-03-02T05:33:30;4.78;;;1.50;;
82900;SDS011;72673;50.822;3.280;2024-03-02T05:35:58;2.50;;;1.10;;
82900;SDS011;72673;50.822;3.280;2024-03-02T05:38:23;4.60;;;1.30;;
82900;SDS011;72673;50.822;3.280;2024-03-02T05:40:49;8.48;;;1.35;;
82900;SDS011;72673;50.822;3.280;2024-03-02T05:43:15;3.83;;;1.17;;
82900;SDS011;72673;50.822;3.280;2024-03-02T05:45:40;4.55;;;1.23;;
82900;SDS011;72673;50.822;3.280;2024-03-02T05:48:07;6.45;;;1.42;;
82900;SDS011;72673;50.822;3.280;2024-03-02T05:50:33;8.02;;;1.77;;
82900;SDS011;72673;50.822;3.280;2024-03-02T05:52:58;4.78;;;1.20;;
82900;SDS011;72673;50.822;3.280;2024-03-02T05:55:24;8.18;;;1.30;;
82900;SDS011;72673;50.822;3.280;2024-03-02T05:57:50;6.82;;;1.73;;
82900;SDS011;72673;50.822;3.280;2024-03-02T06:00:31;9.55;;;1.40;;
82900;SDS011;72673;50.822;3.280;2024-03-02T06:02:57;8.82;;;1.85;;
82900;SDS011;72673;50.822;3.280;2024-03-02T06:05:22;15.13;;;2.45;;
82900;SDS011;72673;50.822;3.280;2024-03-02T06:07:48;6.35;;;1.25;;
82900;SDS011;72673;50.822;3.280;2024-03-02T06:10:14;11.93;;;1.60;;
82900;SDS011;72673;50.822;3.280;2024-03-02T06:12:40;6.18;;;1.10;;
82900;SDS011;72673;50.822;3.280;2024-03-02T06:15:05;4.55;;;1.00;;
82900;SDS011;72673;50.822;3.280;2024-03-02T06:17:31;8.20;;;1.15;;
82900;SDS011;72673;50.822;3.280;2024-03-02T06:19:57;7.88;;;1.00;;
82900;SDS011;72673;50.822;3.280;2024-03-02T06:22:23;5.38;;;1.17;;
82900;SDS011;72673;50.822;3.280;2024-03-02T06:24:50;7.53;;;1.10;;
82900;SDS011;72673;50.822;3.280;2024-03-02T06:27:16;9.35;;;1.05;;
82900;SDS011;72673;50.822;3.280;2024-03-02T06:29:42;11.95;;;1.23;;
82900;SDS011;72673;50.822;3.280;2024-03-02T06:32:07;6.38;;;1.13;;
82900;SDS011;72673;50.822;3.280;2024-03-02T06:34:33;5.75;;;0.82;;
82900;SDS011;72673;50.822;3.280;2024-03-02T06:36:58;8.27;;;1.20;;
82900;SDS011;72673;50.822;3.280;2024-03-02T06:39:25;13.10;;;1.73;;
82900;SDS011;72673;50.822;3.280;2024-03-02T06:41:51;7.82;;;1.13;;
82900;SDS011;72673;50.822;3.280;2024-03-02T06:44:17;6.55;;;1.02;;
82900;SDS011;72673;50.822;3.280;2024-03-02T06:46:42;10.10;;;1.40;;
82900;SDS011;72673;50.822;3.280;2024-03-02T06:49:08;10.15;;;1.58;;
82900;SDS011;72673;50.822;3.280;2024-03-02T06:51:35;9.48;;;1.88;;
82900;SDS011;72673;50.822;3.280;2024-03-02T06:54:01;11.57;;;1.55;;
82900;SDS011;72673;50.822;3.280;2024-03-02T06:56:27;13.05;;;2.15;;
82900;SDS011;72673;50.822;3.280;2024-03-02T06:58:52;13.65;;;1.48;;
82900;SDS011;72673;50.822;3.280;2024-03-02T07:01:18;7.57;;;1.77;;
82900;SDS011;72673;50.822;3.280;2024-03-02T07:03:45;9.98;;;1.40;;
82900;SDS011;72673;50.822;3.280;2024-03-02T07:06:11;5.07;;;1.38;;
82900;SDS011;72673;50.822;3.280;2024-03-02T07:08:37;14.50;;;1.80;;
82900;SDS011;72673;50.822;3.280;2024-03-02T07:11:02;7.20;;;1.63;;
82900;SDS011;72673;50.822;3.280;2024-03-02T07:13:28;6.95;;;0.95;;
82900;SDS011;72673;50.822;3.280;2024-03-02T07:15:53;10.77;;;1.98;;
82900;SDS011;72673;50.822;3.280;2024-03-02T07:18:28;3.30;;;1.15;;
82900;SDS011;72673;50.822;3.280;2024-03-02T07:20:57;5.13;;;1.67;;
82900;SDS011;72673;50.822;3.280;2024-03-02T07:23:29;7.88;;;1.20;;
82900;SDS011;72673;50.822;3.280;2024-03-02T07:25:55;7.07;;;1.45;;
82900;SDS011;72673;50.822;3.280;2024-03-02T07:28:24;10.38;;;1.10;;
82900;SDS011;72673;50.822;3.280;2024-03-02T07:30:59;9.75;;;1.20;;
82900;SDS011;72673;50.822;3.280;2024-03-02T07:33:29;4.72;;;1.02;;
82900;SDS011;72673;50.822;3.280;2024-03-02T07:35:58;7.60;;;1.17;;
82900;SDS011;72673;50.822;3.280;2024-03-02T07:38:26;15.10;;;1.30;;
82900;SDS011;72673;50.822;3.280;2024-03-02T07:40:52;7.93;;;0.80;;
82900;SDS011;72673;50.822;3.280;2024-03-02T07:43:18;13.10;;;1.65;;
82900;SDS011;72673;50.822;3.280;2024-03-02T07:45:44;10.35;;;1.15;;
82900;SDS011;72673;50.822;3.280;2024-03-02T07:48:10;15.70;;;2.10;;
82900;SDS011;72673;50.822;3.280;2024-03-02T07:50:36;10.15;;;1.85;;
82900;SDS011;72673;50.822;3.280;2024-03-02T07:53:04;11.45;;;1.45;;
82900;SDS011;72673;50.822;3.280;2024-03-02T07:55:30;4.80;;;1.42;;
82900;SDS011;72673;50.822;3.280;2024-03-02T07:57:56;16.92;;;1.77;;
82900;SDS011;72673;50.822;3.280;2024-03-02T08:00:22;3.75;;;0.80;;
82900;SDS011;72673;50.822;3.280;2024-03-02T08:02:48;9.35;;;1.38;;
82900;SDS011;72673;50.822;3.280;2024-03-02T08:05:16;9.18;;;1.42;;
82900;SDS011;72673;50.822;3.280;2024-03-02T08:07:43;5.97;;;1.13;;
82900;SDS011;72673;50.822;3.280;2024-03-02T08:10:09;7.07;;;1.20;;
82900;SDS011;72673;50.822;3.280;2024-03-02T08:12:36;12.02;;;1.50;;
82900;SDS011;72673;50.822;3.280;2024-03-02T08:15:01;7.50;;;1.35;;
82900;SDS011;72673;50.822;3.280;2024-03-02T08:17:27;11.10;;;1.50;;
82900;SDS011;72673;50.822;3.280;2024-03-02T08:19:52;18.13;;;1.70;;
82900;SDS011;72673;50.822;3.280;2024-03-02T08:22:18;7.82;;;1.25;;
82900;SDS011;72673;50.822;3.280;2024-03-02T08:24:44;12.48;;;1.08;;
82900;SDS011;72673;50.822;3.280;2024-03-02T08:27:11;28.90;;;3.10;;
82900;SDS011;72673;50.822;3.280;2024-03-02T08:29:37;7.85;;;1.00;;
82900;SDS011;72673;50.822;3.280;2024-03-02T08:32:03;9.75;;;1.20;;
82900;SDS011;72673;50.822;3.280;2024-03-02T08:34:29;9.25;;;1.10;;
82900;SDS011;72673;50.822;3.280;2024-03-02T08:36:54;7.97;;;0.93;;
82900;SDS011;72673;50.822;3.280;2024-03-02T08:39:20;8.00;;;1.15;;
82900;SDS011;72673;50.822;3.280;2024-03-02T08:41:46;10.55;;;1.25;;
82900;SDS011;72673;50.822;3.280;2024-03-02T08:44:12;14.00;;;1.40;;
82900;SDS011;72673;50.822;3.280;2024-03-02T08:46:41;11.65;;;1.15;;
82900;SDS011;72673;50.822;3.280;2024-03-02T08:49:07;8.88;;;1.00;;
82900;SDS011;72673;50.822;3.280;2024-03-02T08:51:33;6.97;;;1.40;;
82900;SDS011;72673;50.822;3.280;2024-03-02T08:53:58;8.00;;;1.35;;
82900;SDS011;72673;50.822;3.280;2024-03-02T08:56:24;6.28;;;1.35;;
82900;SDS011;72673;50.822;3.280;2024-03-02T08:58:50;8.02;;;1.10;;
82900;SDS011;72673;50.822;3.280;2024-03-02T09:01:17;17.02;;;1.40;;
82900;SDS011;72673;50.822;3.280;2024-03-02T09:03:44;13.60;;;1.83;;
82900;SDS011;72673;50.822;3.280;2024-03-02T09:06:10;4.03;;;0.90;;
82900;SDS011;72673;50.822;3.280;2024-03-02T09:08:36;12.77;;;1.15;;
82900;SDS011;72673;50.822;3.280;2024-03-02T09:11:03;9.98;;;1.10;;
82900;SDS011;72673;50.822;3.280;2024-03-02T09:13:32;9.63;;;1.30;;
82900;SDS011;72673;50.822;3.280;2024-03-02T09:15:58;7.95;;;1.40;;
82900;SDS011;72673;50.822;3.280;2024-03-02T09:18:24;10.95;;;1.40;;
82900;SDS011;72673;50.822;3.280;2024-03-02T09:20:49;9.25;;;1.40;;
82900;SDS011;72673;50.822;3.280;2024-03-02T09:23:15;8.25;;;1.10;;
82900;SDS011;72673;50.822;3.280;2024-03-02T09:25:41;4.45;;;0.82;;
82900;SDS011;72673;50.822;3.280;2024-03-02T09:28:06;12.40;;;1.45;;
82900;SDS011;72673;50.822;3.280;2024-03-02T09:30:32;10.32;;;0.90;;
82900;SDS011;72673;50.822;3.280;2024-03-02T09:32:58;7.80;;;1.10;;
82900;SDS011;72673;50.822;3.280;2024-03-02T09:35:24;8.90;;;1.00;;
82900;SDS011;72673;50.822;3.280;2024-03-02T09:37:49;10.15;;;1.45;;
82900;SDS011;72673;50.822;3.280;2024-03-02T09:40:15;11.18;;;1.95;;
82900;SDS011;72673;50.822;3.280;2024-03-02T09:42:41;11.35;;;1.35;;
82900;SDS011;72673;50.822;3.280;2024-03-02T09:45:08;12.57;;;1.25;;
82900;SDS011;72673;50.822;3.280;2024-03-02T09:47:34;11.05;;;1.27;;
82900;SDS011;72673;50.822;3.280;2024-03-02T09:50:00;15.00;;;1.40;;
82900;SDS011;72673;50.822;3.280;2024-03-02T09:52:25;11.38;;;1.10;;
82900;SDS011;72673;50.822;3.280;2024-03-02T09:54:51;4.32;;;1.00;;
82900;SDS011;72673;50.822;3.280;2024-03-02T09:57:17;12.73;;;1.02;;
82900;SDS011;72673;50.822;3.280;2024-03-02T09:59:43;12.23;;;1.10;;
82900;SDS011;72673;50.822;3.280;2024-03-02T10:02:10;7.70;;;1.02;;
82900;SDS011;72673;50.822;3.280;2024-03-02T10:04:36;6.20;;;0.90;;
82900;SDS011;72673;50.822;3.280;2024-03-02T10:07:15;7.88;;;1.38;;
82900;SDS011;72673;50.822;3.280;2024-03-02T10:09:42;7.82;;;0.85;;
82900;SDS011;72673;50.822;3.280;2024-03-02T10:12:10;5.78;;;1.35;;
82900;SDS011;72673;50.822;3.280;2024-03-02T10:14:37;9.65;;;1.73;;
82900;SDS011;72673;50.822;3.280;2024-03-02T10:17:04;12.13;;;1.30;;
82900;SDS011;72673;50.822;3.280;2024-03-02T10:19:34;11.55;;;1.38;;
82900;SDS011;72673;50.822;3.280;2024-03-02T10:22:02;5.57;;;1.17;;
82900;SDS011;72673;50.822;3.280;2024-03-02T10:24:40;8.18;;;1.38;;
82900;SDS011;72673;50.822;3.280;2024-03-02T10:27:15;7.78;;;1.48;;
82900;SDS011;72673;50.822;3.280;2024-03-02T10:29:42;9.02;;;1.70;;
82900;SDS011;72673;50.822;3.280;2024-03-02T10:32:10;15.65;;;1.70;;
82900;SDS011;72673;50.822;3.280;2024-03-02T10:34:37;9.48;;;1.50;;
82900;SDS011;72673;50.822;3.280;2024-03-02T10:37:05;20.50;;;1.65;;
82900;SDS011;72673;50.822;3.280;2024-03-02T10:39:32;7.60;;;1.50;;
82900;SDS011;72673;50.822;3.280;2024-03-02T10:42:00;7.55;;;1.17;;
82900;SDS011;72673;50.822;3.280;2024-03-02T10:44:28;6.15;;;1.70;;
82900;SDS011;72673;50.822;3.280;2024-03-02T10:46:55;7.97;;;1.15;;
82900;SDS011;72673;50.822;3.280;2024-03-02T10:49:22;9.00;;;1.35;;
82900;SDS011;72673;50.822;3.280;2024-03-02T10:51:49;6.38;;;1.33;;
82900;SDS011;72673;50.822;3.280;2024-03-02T10:54:14;6.07;;;0.93;;
82900;SDS011;72673;50.822;3.280;2024-03-02T10:56:41;2.35;;;0.75;;
82900;SDS011;72673;50.822;3.280;2024-03-02T10:59:32;6.50;;;1.35;;
82900;SDS011;72673;50.822;3.280;2024-03-02T11:02:04;4.57;;;1.20;;
82900;SDS011;72673;50.822;3.280;2024-03-02T11:04:32;11.10;;;1.08;;
82900;SDS011;72673;50.822;3.280;2024-03-02T11:07:04;7.38;;;1.10;;
82900;SDS011;72673;50.822;3.280;2024-03-02T11:09:36;8.57;;;1.40;;
82900;SDS011;72673;50.822;3.280;2024-03-02T11:12:15;8.90;;;1.33;;
82900;SDS011;72673;50.822;3.280;2024-03-02T11:14:47;10.15;;;1.33;;
82900;SDS011;72673;50.822;3.280;2024-03-02T11:17:15;10.30;;;0.90;;
82900;SDS011;72673;50.822;3.280;2024-03-02T11:19:41;5.75;;;1.08;;
82900;SDS011;72673;50.822;3.280;2024-03-02T11:22:08;5.10;;;0.95;;
82900;SDS011;72673;50.822;3.280;2024-03-02T11:24:34;8.63;;;1.27;;
82900;SDS011;72673;50.822;3.280;2024-03-02T11:27:01;7.65;;;1.42;;
82900;SDS011;72673;50.822;3.280;2024-03-02T11:32:01;10.88;;;1.35;;
82900;SDS011;72673;50.822;3.280;2024-03-02T11:34:32;8.57;;;1.60;;
82900;SDS011;72673;50.822;3.280;2024-03-02T11:36:58;4.10;;;0.90;;
82900;SDS011;72673;50.822;3.280;2024-03-02T11:39:26;8.13;;;1.00;;
82900;SDS011;72673;50.822;3.280;2024-03-02T11:41:52;9.13;;;1.30;;
82900;SDS011;72673;50.822;3.280;2024-03-02T11:44:18;5.43;;;1.42;;
82900;SDS011;72673;50.822;3.280;2024-03-02T11:46:45;6.63;;;1.30;;
82900;SDS011;72673;50.822;3.280;2024-03-02T11:49:15;8.35;;;1.05;;
82900;SDS011;72673;50.822;3.280;2024-03-02T11:51:53;4.25;;;1.13;;
82900;SDS011;72673;50.822;3.280;2024-03-02T11:54:27;7.50;;;1.10;;
82900;SDS011;72673;50.822;3.280;2024-03-02T11:56:55;9.93;;;1.13;;
82900;SDS011;72673;50.822;3.280;2024-03-02T11:59:21;7.28;;;1.30;;
82900;SDS011;72673;50.822;3.280;2024-03-02T12:01:48;8.95;;;1.20;;
82900;SDS011;72673;50.822;3.280;2024-03-02T12:04:15;5.57;;;1.13;;
82900;SDS011;72673;50.822;3.280;2024-03-02T12:06:40;8.45;;;1.08;;
82900;SDS011;72673;50.822;3.280;2024-03-02T12:09:09;9.43;;;1.30;;
82900;SDS011;72673;50.822;3.280;2024-03-02T12:11:39;9.27;;;1.40;;
82900;SDS011;72673;50.822;3.280;2024-03-02T12:14:10;6.72;;;0.95;;
82900;SDS011;72673;50.822;3.280;2024-03-02T12:16:37;8.88;;;1.52;;
82900;SDS011;72673;50.822;3.280;2024-03-02T12:19:05;4.95;;;0.93;;
82900;SDS011;72673;50.822;3.280;2024-03-02T12:21:31;9.95;;;1.25;;
82900;SDS011;72673;50.822;3.280;2024-03-02T12:23:57;4.53;;;0.70;;
82900;SDS011;72673;50.822;3.280;2024-03-02T12:26:22;7.80;;;0.90;;
82900;SDS011;72673;50.822;3.280;2024-03-02T12:28:49;3.10;;;0.95;;
82900;SDS011;72673;50.822;3.280;2024-03-02T12:31:14;6.55;;;1.10;;
82900;SDS011;72673;50.822;3.280;2024-03-02T12:33:40;7.88;;;1.38;;
82900;SDS011;72673;50.822;3.280;2024-03-02T12:36:09;6.15;;;1.13;;
82900;SDS011;72673;50.822;3.280;2024-03-02T12:38:37;7.20;;;1.00;;
82900;SDS011;72673;50.822;3.280;2024-03-02T12:41:03;7.82;;;0.90;;
82900;SDS011;72673;50.822;3.280;2024-03-02T12:43:30;3.10;;;1.10;;
82900;SDS011;72673;50.822;3.280;2024-03-02T12:45:56;5.47;;;1.38;;
82900;SDS011;72673;50.822;3.280;2024-03-02T12:48:23;5.07;;;1.23;;
82900;SDS011;72673;50.822;3.280;2024-03-02T12:50:49;9.02;;;1.20;;
82900;SDS011;72673;50.822;3.280;2024-03-02T12:53:15;2.95;;;1.00;;
82900;SDS011;72673;50.822;3.280;2024-03-02T12:55:41;5.65;;;1.30;;
82900;SDS011;72673;50.822;3.280;2024-03-02T12:58:15;7.65;;;1.15;;
82900;SDS011;72673;50.822;3.280;2024-03-02T13:00:42;2.67;;;0.90;;
82900;SDS011;72673;50.822;3.280;2024-03-02T13:03:07;2.85;;;1.08;;
82900;SDS011;72673;50.822;3.280;2024-03-02T13:05:33;6.10;;;0.80;;
82900;SDS011;72673;50.822;3.280;2024-03-02T13:08:00;8.00;;;1.15;;
82900;SDS011;72673;50.822;3.280;2024-03-02T13:10:28;4.53;;;0.95;;
82900;SDS011;72673;50.822;3.280;2024-03-02T13:12:54;5.10;;;1.02;;
82900;SDS011;72673;50.822;3.280;2024-03-02T13:15:20;5.57;;;1.10;;
82900;SDS011;72673;50.822;3.280;2024-03-02T13:17:46;7.05;;;0.90;;
82900;SDS011;72673;50.822;3.280;2024-03-02T13:20:12;7.80;;;1.10;;
82900;SDS011;72673;50.822;3.280;2024-03-02T13:22:39;4.25;;;1.23;;
82900;SDS011;72673;50.822;3.280;2024-03-02T13:25:04;2.80;;;0.82;;
82900;SDS011;72673;50.822;3.280;2024-03-02T13:27:30;8.60;;;1.20;;
82900;SDS011;72673;50.822;3.280;2024-03-02T13:29:57;2.78;;;0.57;;
82900;SDS011;72673;50.822;3.280;2024-03-02T13:32:23;6.25;;;1.27;;
82900;SDS011;72673;50.822;3.280;2024-03-02T13:34:50;7.18;;;1.23;;
82900;SDS011;72673;50.822;3.280;2024-03-02T13:37:16;3.90;;;0.90;;
82900;SDS011;72673;50.822;3.280;2024-03-02T13:39:41;6.82;;;1.25;;
82900;SDS011;72673;50.822;3.280;2024-03-02T13:42:08;5.78;;;1.10;;
82900;SDS011;72673;50.822;3.280;2024-03-02T13:44:34;2.83;;;0.90;;
82900;SDS011;72673;50.822;3.280;2024-03-02T13:47:00;5.03;;;0.88;;
82900;SDS011;72673;50.822;3.280;2024-03-02T13:49:26;4.63;;;0.73;;
82900;SDS011;72673;50.822;3.280;2024-03-02T13:52:05;2.70;;;0.85;;
82900;SDS011;72673;50.822;3.280;2024-03-02T13:54:42;2.90;;;0.70;;
82900;SDS011;72673;50.822;3.280;2024-03-02T13:57:09;1.27;;;0.70;;
82900;SDS011;72673;50.822;3.280;2024-03-02T13:59:35;4.68;;;0.80;;
82900;SDS011;72673;50.822;3.280;2024-03-02T14:02:02;4.18;;;0.80;;
82900;SDS011;72673;50.822;3.280;2024-03-02T14:04:32;3.58;;;1.13;;
82900;SDS011;72673;50.822;3.280;2024-03-02T14:06:59;8.43;;;1.25;;
82900;SDS011;72673;50.822;3.280;2024-03-02T14:09:25;5.55;;;1.20;;
82900;SDS011;72673;50.822;3.280;2024-03-02T14:11:51;2.55;;;1.00;;
82900;SDS011;72673;50.822;3.280;2024-03-02T14:14:17;4.07;;;1.02;;
82900;SDS011;72673;50.822;3.280;2024-03-02T14:16:43;5.78;;;1.40;;
82900;SDS011;72673;50.822;3.280;2024-03-02T14:19:09;7.22;;;1.25;;
82900;SDS011;72673;50.822;3.280;2024-03-02T14:21:35;3.63;;;1.08;;
82900;SDS011;72673;50.822;3.280;2024-03-02T14:24:01;3.67;;;1.10;;
82900;SDS011;72673;50.822;3.280;2024-03-02T14:26:26;4.70;;;1.10;;
82900;SDS011;72673;50.822;3.280;2024-03-02T14:28:53;5.20;;;1.13;;
82900;SDS011;72673;50.822;3.280;2024-03-02T14:31:19;7.82;;;1.70;;
82900;SDS011;72673;50.822;3.280;2024-03-02T14:33:45;8.45;;;1.50;;
82900;SDS011;72673;50.822;3.280;2024-03-02T14:36:11;5.93;;;1.42;;
82900;SDS011;72673;50.822;3.280;2024-03-02T14:38:37;6.22;;;1.48;;
82900;SDS011;72673;50.822;3.280;2024-03-02T14:41:03;4.13;;;1.20;;
82900;SDS011;72673;50.822;3.280;2024-03-02T14:43:29;3.17;;;1.20;;
82900;SDS011;72673;50.822;3.280;2024-03-02T14:45:55;5.13;;;1.33;;
82900;SDS011;72673;50.822;3.280;2024-03-02T14:48:21;6.40;;;1.27;;
82900;SDS011;72673;50.822;3.280;2024-03-02T14:50:46;6.55;;;1.45;;